createdAt,value
2023-04-17T00:00:57.146Z,38.99
2023-04-17T00:01:57.138Z,38.70
2023-04-17T00:02:57.453Z,38.49
2023-04-17T00:03:57.178Z,38.63
2023-04-17T00:04:57.193Z,38.59
2023-04-17T00:05:57.129Z,38.81
2023-04-17T00:06:57.067Z,38.42
2023-04-17T00:07:57.030Z,38.56
2023-04-17T00:08:57.046Z,38.59
2023-04-17T00:09:57.068Z,38.67
2023-04-17T00:11:04.561Z,38.70
2023-04-17T00:11:57.000Z,38.92
2023-04-17T00:12:56.994Z,38.59
2023-04-17T00:13:56.988Z,38.74
2023-04-17T00:14:56.964Z,38.59
2023-04-17T00:15:56.999Z,38.56
2023-04-17T00:16:56.960Z,38.42
2023-04-17T00:17:57.067Z,38.49
2023-04-17T00:18:57.104Z,38.45
2023-04-17T00:19:56.969Z,38.52
2023-04-17T00:20:57.160Z,38.63
2023-04-17T00:21:56.935Z,38.42
2023-04-17T00:22:56.909Z,38.27
2023-04-17T00:23:56.926Z,38.49
2023-04-17T00:24:56.847Z,38.24
2023-04-17T00:25:56.851Z,38.10
2023-04-17T00:26:56.874Z,38.17
2023-04-17T00:27:56.818Z,38.27
2023-04-17T00:28:56.813Z,38.20
2023-04-17T00:29:56.800Z,38.17
2023-04-17T00:30:56.842Z,38.24
2023-04-17T00:31:56.877Z,38.34
2023-04-17T00:32:56.818Z,38.03
2023-04-17T00:33:56.901Z,37.99
2023-04-17T00:34:56.758Z,38.03
2023-04-17T00:35:56.840Z,37.86
2023-04-17T00:36:56.890Z,37.82
2023-04-17T00:37:56.792Z,37.72
2023-04-17T00:38:56.823Z,37.79
2023-04-17T00:39:56.769Z,37.68
2023-04-17T00:40:56.755Z,37.65
2023-04-17T00:41:56.772Z,37.62
2023-04-17T00:42:56.681Z,37.58
2023-04-17T00:43:56.710Z,37.45
2023-04-17T00:44:56.729Z,37.25
2023-04-17T00:45:56.800Z,37.15
2023-04-17T00:46:56.713Z,37.31
2023-04-17T00:47:56.696Z,37.28
2023-04-17T00:48:56.621Z,37.21
2023-04-17T00:49:56.620Z,37.05
2023-04-17T00:50:56.628Z,37.08
2023-04-17T00:51:56.658Z,36.95
2023-04-17T00:52:56.611Z,37.05
2023-04-17T00:53:56.686Z,37.25
2023-04-17T00:54:56.581Z,37.25
2023-04-17T00:55:56.604Z,37.28
2023-04-17T00:56:56.708Z,37.18
2023-04-17T00:57:56.588Z,37.05
2023-04-17T00:58:56.556Z,37.08
2023-04-17T00:59:56.575Z,37.05
2023-04-17T01:00:56.595Z,37.21
2023-04-17T01:01:56.622Z,36.92
2023-04-17T01:02:56.687Z,36.78
2023-04-17T01:04:03.879Z,36.82
2023-04-17T01:04:56.729Z,36.92
2023-04-17T01:05:56.649Z,36.82
2023-04-17T01:06:56.521Z,36.82
2023-04-17T01:07:56.420Z,37.18
2023-04-17T01:08:56.479Z,37.28
2023-04-17T01:09:56.554Z,37.15
2023-04-17T01:10:56.486Z,37.01
2023-04-17T01:11:56.405Z,37.05
2023-04-17T01:12:56.515Z,36.92
2023-04-17T01:13:56.393Z,36.98
2023-04-17T01:14:56.398Z,37.18
2023-04-17T01:15:56.412Z,37.18
2023-04-17T01:16:56.450Z,37.18
2023-04-17T01:17:56.356Z,37.11
2023-04-17T01:18:56.409Z,37.15
2023-04-17T01:19:56.398Z,37.01
2023-04-17T01:20:56.362Z,37.01
2023-04-17T01:21:56.356Z,36.72
2023-04-17T01:22:56.323Z,36.62
2023-04-17T01:23:56.513Z,36.59
2023-04-17T01:24:56.321Z,36.59
2023-04-17T01:25:56.269Z,36.33
2023-04-17T01:26:56.237Z,36.18
2023-04-17T01:27:56.256Z,36.08
2023-04-17T01:28:56.367Z,36.11
2023-04-17T01:29:56.199Z,35.68
2023-04-17T01:30:56.215Z,35.71
2023-04-17T01:31:56.198Z,35.62
2023-04-17T01:32:56.266Z,35.68
2023-04-17T01:33:56.176Z,35.65
2023-04-17T01:34:56.196Z,35.71
2023-04-17T01:35:56.241Z,35.68
2023-04-17T01:36:56.154Z,35.41
2023-04-17T01:37:56.144Z,35.41
2023-04-17T01:38:56.122Z,35.20
2023-04-17T01:39:56.185Z,35.02
2023-04-17T01:40:56.158Z,35.35
2023-04-17T01:41:56.136Z,35.41
2023-04-17T01:42:56.162Z,35.59
2023-04-17T01:43:56.153Z,35.59
2023-04-17T01:44:56.085Z,35.53
2023-04-17T01:45:56.141Z,35.29
2023-04-17T01:46:56.060Z,35.62
2023-04-17T01:47:56.234Z,35.56
2023-04-17T01:48:56.079Z,36.02
2023-04-17T01:49:56.039Z,36.24
2023-04-17T01:50:56.018Z,36.37
2023-04-17T01:51:56.050Z,36.59
2023-04-17T01:52:56.020Z,36.92
2023-04-17T01:53:55.988Z,36.82
2023-04-17T01:54:56.023Z,36.92
2023-04-17T01:55:56.007Z,37.15
2023-04-17T01:56:56.035Z,37.25
2023-04-17T01:57:55.921Z,37.45
2023-04-17T01:58:55.916Z,37.35
2023-04-17T01:59:55.985Z,37.31
2023-04-17T02:00:55.930Z,37.58
2023-04-17T02:01:55.974Z,37.86
2023-04-17T02:02:56.002Z,38.06
2023-04-17T02:03:56.048Z,38.24
2023-04-17T02:04:55.890Z,38.45
2023-04-17T02:05:55.847Z,38.34
2023-04-17T02:06:55.870Z,38.45
2023-04-17T02:07:55.829Z,38.63
2023-04-17T02:08:55.855Z,38.85
2023-04-17T02:09:55.831Z,38.85
2023-04-17T02:10:55.861Z,38.99
2023-04-17T02:11:55.922Z,39.29
2023-04-17T02:12:55.860Z,39.40
2023-04-17T02:13:55.797Z,39.51
2023-04-17T02:14:55.784Z,39.62
2023-04-17T02:15:55.768Z,39.93
2023-04-17T02:16:55.762Z,39.85
2023-04-17T02:17:55.789Z,39.81
2023-04-17T02:18:55.726Z,39.93
2023-04-17T02:19:55.823Z,39.89
2023-04-17T02:20:55.715Z,40.04
2023-04-17T02:21:55.706Z,40.08
2023-04-17T02:22:55.703Z,40.00
2023-04-17T02:23:55.676Z,40.20
2023-04-17T02:24:55.717Z,40.20
2023-04-17T02:25:55.730Z,40.31
2023-04-17T02:26:55.698Z,40.28
2023-04-17T02:27:55.641Z,39.93
2023-04-17T02:28:55.650Z,39.93
2023-04-17T02:29:55.610Z,39.89
2023-04-17T02:30:55.647Z,39.32
2023-04-17T02:31:55.581Z,39.51
2023-04-17T02:32:55.624Z,39.55
2023-04-17T02:33:55.585Z,39.36
2023-04-17T02:34:55.551Z,39.44
2023-04-17T02:35:55.558Z,39.66
2023-04-17T02:36:55.604Z,39.70
2023-04-17T02:37:55.572Z,39.66
2023-04-17T02:38:55.549Z,39.70
2023-04-17T02:39:55.541Z,39.85
2023-04-17T02:40:55.529Z,40.12
2023-04-17T02:41:55.587Z,39.89
2023-04-17T02:42:55.474Z,40.16
2023-04-17T02:43:55.544Z,40.08
2023-04-17T02:44:55.463Z,40.28
2023-04-17T02:45:55.470Z,40.67
2023-04-17T02:46:55.501Z,41.07
2023-04-17T02:47:55.574Z,41.15
2023-04-17T02:48:55.471Z,41.11
2023-04-17T02:49:55.428Z,41.15
2023-04-17T02:50:55.457Z,41.19
2023-04-17T02:51:55.455Z,41.07
2023-04-17T02:52:55.392Z,40.83
2023-04-17T02:53:55.372Z,40.43
2023-04-17T02:54:55.393Z,40.91
2023-04-17T02:55:55.407Z,41.11
2023-04-17T02:56:55.397Z,41.27
2023-04-17T02:57:55.354Z,40.95
2023-04-17T02:58:55.443Z,41.48
2023-04-17T02:59:55.491Z,41.69
2023-04-17T03:00:55.514Z,41.56
2023-04-17T03:01:55.529Z,41.77
2023-04-17T03:02:55.595Z,41.48
2023-04-17T03:03:55.713Z,41.73
2023-04-17T03:04:55.321Z,41.85
2023-04-17T03:05:55.388Z,41.94
2023-04-17T03:06:55.523Z,42.11
2023-04-17T03:07:55.460Z,42.24
2023-04-17T03:08:55.445Z,42.24
2023-04-17T03:09:55.450Z,42.15
2023-04-17T03:10:55.347Z,42.41
2023-04-17T03:11:55.264Z,42.28
2023-04-17T03:12:55.361Z,42.19
2023-04-17T03:13:55.355Z,42.15
2023-04-17T03:14:55.266Z,42.37
2023-04-17T03:15:55.403Z,41.81
2023-04-17T03:16:55.368Z,42.11
2023-04-17T03:17:55.367Z,41.90
2023-04-17T03:18:55.338Z,41.52
2023-04-17T03:19:55.329Z,41.40
2023-04-17T03:20:55.277Z,41.60
2023-04-17T03:21:55.463Z,41.48
2023-04-17T03:22:55.227Z,41.31
2023-04-17T03:23:55.330Z,41.27
2023-04-17T03:24:55.339Z,40.99
2023-04-17T03:25:55.163Z,41.27
2023-04-17T03:26:55.251Z,40.83
2023-04-17T03:27:55.350Z,40.71
2023-04-17T03:28:55.127Z,40.91
2023-04-17T03:29:55.165Z,40.71
2023-04-17T03:30:55.225Z,40.59
2023-04-17T03:31:55.195Z,40.83
2023-04-17T03:32:55.193Z,40.71
2023-04-17T03:33:55.075Z,40.47
2023-04-17T03:34:55.152Z,40.08
2023-04-17T03:35:55.022Z,39.85
2023-04-17T03:36:55.051Z,39.58
2023-04-17T03:37:55.021Z,39.40
2023-04-17T03:38:55.023Z,39.40
2023-04-17T03:39:55.007Z,38.92
2023-04-17T03:40:55.079Z,38.81
2023-04-17T03:41:55.214Z,38.67
2023-04-17T03:42:55.009Z,38.70
2023-04-17T03:43:55.041Z,38.38
2023-04-17T03:44:54.941Z,38.70
2023-04-17T03:45:54.999Z,39.06
2023-04-17T03:46:55.012Z,39.10
2023-04-17T03:47:55.151Z,38.96
2023-04-17T03:48:55.020Z,39.17
2023-04-17T03:49:54.989Z,39.25
2023-04-17T03:50:54.895Z,39.03
2023-04-17T03:51:55.028Z,38.85
2023-04-17T03:52:54.952Z,38.77
2023-04-17T03:53:55.553Z,38.56
2023-04-17T03:54:55.210Z,38.06
2023-04-17T03:56:02.342Z,38.27
2023-04-17T03:56:55.678Z,38.24
2023-04-17T03:57:55.572Z,37.86
2023-04-17T03:58:54.926Z,37.75
2023-04-17T03:59:55.443Z,37.25
2023-04-17T04:00:55.252Z,37.15
2023-04-17T04:01:58.097Z,37.11
2023-04-17T04:02:55.522Z,37.28
2023-04-17T04:03:55.134Z,37.08
2023-04-17T04:04:54.926Z,37.38
2023-04-17T04:05:55.173Z,37.48
2023-04-17T04:06:56.046Z,37.51
2023-04-17T04:07:55.091Z,37.55
2023-04-17T04:08:56.242Z,37.92
2023-04-17T04:09:54.827Z,38.06
2023-04-17T04:10:54.786Z,38.20
2023-04-17T04:11:54.725Z,38.49
2023-04-17T04:12:55.027Z,38.20
2023-04-17T04:13:54.700Z,38.20
2023-04-17T04:14:54.728Z,37.89
2023-04-17T04:15:54.818Z,37.99
2023-04-17T04:16:54.766Z,38.03
2023-04-17T04:17:54.665Z,37.41
2023-04-17T04:18:54.542Z,36.98
2023-04-17T04:19:54.616Z,36.72
2023-04-17T04:20:54.531Z,36.88
2023-04-17T04:21:54.517Z,37.01
2023-04-17T04:22:54.573Z,37.41
2023-04-17T04:23:54.450Z,37.18
2023-04-17T04:24:54.441Z,37.58
2023-04-17T04:25:54.429Z,37.75
2023-04-17T04:26:54.395Z,37.65
2023-04-17T04:27:54.509Z,37.38
2023-04-17T04:28:54.442Z,37.58
2023-04-17T04:29:54.365Z,37.51
2023-04-17T04:30:54.349Z,37.65
2023-04-17T04:31:54.509Z,37.58
2023-04-17T04:32:54.476Z,37.45
2023-04-17T04:33:54.348Z,37.72
2023-04-17T04:34:54.359Z,37.79
2023-04-17T04:35:54.327Z,37.79
2023-04-17T04:36:54.394Z,37.75
2023-04-17T04:37:54.376Z,38.03
2023-04-17T04:38:54.355Z,37.82
2023-04-17T04:39:54.330Z,37.65
2023-04-17T04:40:54.323Z,37.86
2023-04-17T04:41:54.235Z,38.06
2023-04-17T04:42:54.310Z,38.20
2023-04-17T04:43:54.287Z,38.13
2023-04-17T04:44:54.270Z,37.99
2023-04-17T04:45:54.272Z,38.06
2023-04-17T04:46:54.277Z,37.86
2023-04-17T04:47:54.304Z,37.86
2023-04-17T04:48:54.254Z,37.68
2023-04-17T04:49:54.209Z,37.55
2023-04-17T04:50:54.180Z,37.48
2023-04-17T04:51:54.235Z,37.48
2023-04-17T04:52:54.246Z,37.41
2023-04-17T04:53:54.266Z,37.41
2023-04-17T04:54:54.196Z,37.31
2023-04-17T04:55:54.166Z,37.48
2023-04-17T04:56:54.170Z,37.45
2023-04-17T04:57:54.354Z,37.35
2023-04-17T04:58:54.184Z,37.01
2023-04-17T04:59:54.145Z,37.05
2023-04-17T05:00:54.144Z,37.11
2023-04-17T05:01:54.546Z,37.11
2023-04-17T05:02:54.964Z,37.11
2023-04-17T05:03:54.911Z,36.92
2023-04-17T05:04:54.155Z,36.92
2023-04-17T05:05:54.194Z,36.69
2023-04-17T05:06:54.146Z,36.98
2023-04-17T05:07:54.145Z,36.75
2023-04-17T05:08:54.448Z,36.85
2023-04-17T05:09:54.322Z,36.88
2023-04-17T05:10:54.280Z,36.95
2023-04-17T05:11:54.273Z,36.37
2023-04-17T05:12:54.253Z,36.75
2023-04-17T05:13:54.288Z,36.30
2023-04-17T05:14:54.344Z,35.96
2023-04-17T05:15:54.208Z,35.99
2023-04-17T05:16:54.395Z,35.99
2023-04-17T05:17:54.989Z,35.96
2023-04-17T05:18:54.167Z,35.83
2023-04-17T05:19:53.947Z,36.02
2023-04-17T05:20:53.917Z,36.05
2023-04-17T05:21:53.941Z,36.27
2023-04-17T05:22:53.949Z,36.15
2023-04-17T05:23:53.949Z,36.15
2023-04-17T05:24:54.060Z,35.96
2023-04-17T05:25:53.849Z,35.87
2023-04-17T05:26:54.259Z,35.71
2023-04-17T05:27:54.076Z,35.87
2023-04-17T05:28:53.883Z,35.96
2023-04-17T05:29:54.138Z,36.27
2023-04-17T05:30:53.860Z,36.02
2023-04-17T05:31:53.896Z,35.90
2023-04-17T05:32:54.091Z,35.96
2023-04-17T05:33:53.906Z,35.87
2023-04-17T05:34:54.069Z,35.65
2023-04-17T05:35:56.262Z,35.59
2023-04-17T05:36:54.396Z,35.17
2023-04-17T05:37:54.498Z,35.05
2023-04-17T05:38:53.914Z,35.11
2023-04-17T05:39:54.296Z,35.17
2023-04-17T05:40:54.491Z,35.32
2023-04-17T05:41:54.057Z,35.35
2023-04-17T05:42:54.714Z,35.29
2023-04-17T05:43:53.781Z,35.20
2023-04-17T05:44:54.810Z,35.29
2023-04-17T05:47:05.752Z,39.32
2023-04-17T05:48:06.565Z,38.10
2023-04-17T05:49:06.588Z,37.86
2023-04-17T05:50:06.215Z,37.48
2023-04-17T05:51:06.237Z,37.11
2023-04-17T05:52:06.261Z,36.65
2023-04-17T05:53:06.205Z,36.49
2023-04-17T05:54:06.190Z,36.27
2023-04-17T05:55:06.166Z,36.08
2023-04-17T05:56:06.237Z,36.11
2023-04-17T05:57:06.156Z,36.15
2023-04-17T05:58:22.197Z,35.83
2023-04-17T05:59:06.236Z,35.47
2023-04-17T06:00:06.276Z,35.29
2023-04-17T06:01:06.318Z,35.08
2023-04-17T06:02:06.206Z,35.14
2023-04-17T06:03:06.326Z,34.96
2023-04-17T06:04:06.443Z,34.93
2023-04-17T06:05:06.261Z,34.84
2023-04-17T06:06:06.082Z,34.79
2023-04-17T06:07:06.138Z,35.11
2023-04-17T06:08:06.069Z,35.26
2023-04-17T06:09:06.046Z,35.41
2023-04-17T06:10:06.063Z,35.71
2023-04-17T06:11:06.052Z,36.02
2023-04-17T06:12:06.065Z,36.30
2023-04-17T06:13:06.041Z,36.33
2023-04-17T06:14:06.002Z,36.40
2023-04-17T06:15:07.377Z,36.33
2023-04-17T06:16:05.982Z,36.40
2023-04-17T06:17:06.050Z,36.27
2023-04-17T06:18:06.064Z,36.15
2023-04-17T06:19:05.982Z,36.08
2023-04-17T06:20:06.037Z,36.24
2023-04-17T06:21:05.927Z,36.53
2023-04-17T06:22:05.936Z,36.62
2023-04-17T06:23:05.903Z,36.59
2023-04-17T06:24:05.938Z,36.85
2023-04-17T06:25:05.894Z,36.75
2023-04-17T06:26:05.883Z,36.95
2023-04-17T06:27:05.896Z,37.11
2023-04-17T06:28:05.865Z,37.51
2023-04-17T06:29:05.881Z,37.75
2023-04-17T06:30:05.900Z,38.42
2023-04-17T06:31:05.980Z,38.56
2023-04-17T06:32:05.820Z,38.74
2023-04-17T06:33:05.886Z,38.67
2023-04-17T06:34:05.790Z,38.27
2023-04-17T06:35:05.879Z,38.38
2023-04-17T06:36:05.845Z,38.56
2023-04-17T06:37:05.776Z,38.63
2023-04-17T06:38:05.758Z,38.99
2023-04-17T06:39:05.788Z,39.10
2023-04-17T06:40:05.759Z,38.99
2023-04-17T06:41:05.760Z,39.32
2023-04-17T06:42:05.714Z,39.36
2023-04-17T06:43:05.725Z,39.66
2023-04-17T06:44:05.704Z,39.85
2023-04-17T06:45:05.691Z,40.24
2023-04-17T06:46:05.743Z,40.08
2023-04-17T06:47:05.731Z,40.51
2023-04-17T06:48:05.819Z,40.63
2023-04-17T06:49:05.992Z,40.83
2023-04-17T06:51:55.628Z,42.94
2023-04-17T06:52:56.250Z,42.41
2023-04-17T06:53:56.374Z,42.07
2023-04-17T06:54:56.177Z,41.81
2023-04-17T06:55:56.165Z,41.56
2023-04-17T06:56:56.186Z,41.31
2023-04-17T06:57:56.201Z,41.40
2023-04-17T06:58:56.121Z,41.44
2023-04-17T06:59:56.137Z,41.48
2023-04-17T07:00:56.128Z,41.11
2023-04-17T07:01:56.174Z,40.91
2023-04-17T07:02:56.322Z,41.31
2023-04-17T07:03:56.358Z,41.40
2023-04-17T07:04:56.136Z,41.56
2023-04-17T07:05:56.058Z,41.73
2023-04-17T07:06:56.064Z,42.02
2023-04-17T07:07:56.064Z,41.90
2023-04-17T07:08:56.059Z,42.24
2023-04-17T07:09:56.098Z,42.85
2023-04-17T07:10:56.059Z,43.47
2023-04-17T07:11:56.055Z,43.89
2023-04-17T07:12:56.102Z,44.12
2023-04-17T07:13:55.996Z,44.69
2023-04-17T07:14:55.950Z,44.69
2023-04-17T07:15:56.141Z,45.17
2023-04-17T07:16:56.001Z,45.27
2023-04-17T07:17:56.003Z,45.42
2023-04-17T07:18:55.967Z,46.02
2023-04-17T07:19:55.939Z,46.64
2023-04-17T07:20:55.958Z,47.03
2023-04-17T07:21:55.945Z,47.41
2023-04-17T07:22:55.899Z,47.71
2023-04-17T07:23:56.011Z,47.79
2023-04-17T07:24:55.862Z,47.90
2023-04-17T07:25:55.891Z,47.46
2023-04-17T07:26:55.953Z,47.33
2023-04-17T07:27:55.908Z,47.41
2023-04-17T07:28:56.003Z,47.49
2023-04-17T07:29:55.903Z,47.71
2023-04-17T07:30:55.879Z,48.12
2023-04-17T07:31:55.942Z,48.29
2023-04-17T07:32:55.890Z,48.35
2023-04-17T07:33:55.798Z,48.51
2023-04-17T07:34:55.821Z,48.21
2023-04-17T07:35:55.803Z,48.18
2023-04-17T07:36:55.737Z,48.43
2023-04-17T07:37:55.767Z,48.46
2023-04-17T07:38:55.748Z,48.15
2023-04-17T07:39:55.751Z,47.93
2023-04-17T07:40:55.712Z,48.49
2023-04-17T07:41:55.716Z,49.17
2023-04-17T07:42:55.688Z,49.50
2023-04-17T07:43:57.779Z,49.88
2023-04-17T07:44:55.691Z,50.28
2023-04-17T07:45:55.674Z,50.95
2023-04-17T07:46:55.828Z,51.97
2023-04-17T07:47:55.753Z,52.60
2023-04-17T07:48:56.351Z,53.34
2023-04-17T07:49:55.685Z,54.78
2023-04-17T07:50:55.664Z,56.23
2023-04-17T07:51:55.596Z,57.59
2023-04-17T07:52:55.648Z,58.98
2023-04-17T07:53:55.604Z,60.84
2023-04-17T07:54:55.573Z,61.15
2023-04-17T07:55:55.595Z,61.33
2023-04-17T07:56:55.718Z,61.74
2023-04-17T07:57:55.569Z,61.92
2023-04-17T07:58:55.528Z,62.44
2023-04-17T07:59:55.613Z,62.86
2023-04-17T08:00:55.537Z,62.91
2023-04-17T08:01:55.649Z,63.00
2023-04-17T08:02:55.629Z,62.58
2023-04-17T08:03:55.730Z,62.11
2023-04-17T08:04:55.701Z,62.29
2023-04-17T08:05:55.528Z,62.67
2023-04-17T08:06:55.530Z,63.73
2023-04-17T08:07:55.433Z,64.17
2023-04-17T08:08:55.482Z,64.27
2023-04-17T08:09:55.543Z,63.58
2023-04-17T08:10:55.421Z,62.39
2023-04-17T08:11:57.960Z,61.92
2023-04-17T08:12:55.381Z,62.34
2023-04-17T08:13:55.480Z,62.81
2023-04-17T08:14:55.393Z,63.00
2023-04-17T08:15:55.419Z,62.77
2023-04-17T08:16:55.498Z,62.86
2023-04-17T08:17:55.457Z,63.53
2023-04-17T08:18:55.332Z,64.82
2023-04-17T08:19:55.324Z,65.90
2023-04-17T08:20:55.344Z,67.23
2023-04-17T08:21:55.298Z,68.17
2023-04-17T08:22:55.384Z,68.79
2023-04-17T08:23:55.347Z,69.19
2023-04-17T08:24:55.289Z,70.42
2023-04-17T08:25:55.253Z,70.01
2023-04-17T08:26:55.263Z,70.78
2023-04-17T08:27:55.218Z,72.13
2023-04-17T08:28:55.343Z,74.06
2023-04-17T08:29:55.213Z,73.93
2023-04-17T08:30:55.224Z,73.60
2023-04-17T08:32:10.365Z,78.32
2023-04-17T08:32:55.233Z,79.75
2023-04-17T08:34:02.834Z,81.71
2023-04-17T08:34:55.206Z,86.38
2023-04-17T08:35:55.152Z,90.02
2023-04-17T08:36:55.184Z,93.57
2023-04-17T08:37:55.340Z,95.93
2023-04-17T08:38:55.236Z,101.50
2023-04-17T08:39:55.122Z,102.94
2023-04-17T08:40:55.149Z,98.90
2023-04-17T08:41:55.086Z,96.71
2023-04-17T08:42:55.139Z,102.06
2023-04-17T08:43:55.163Z,108.38
2023-04-17T08:44:55.089Z,110.61
2023-04-17T08:45:55.137Z,105.42
2023-04-17T08:46:55.060Z,108.31
2023-04-17T08:47:55.071Z,110.91
2023-04-17T08:48:55.056Z,111.06
2023-04-17T08:49:55.025Z,109.88
2023-04-17T08:50:55.037Z,103.91
2023-04-17T08:51:54.995Z,102.94
2023-04-17T08:52:55.051Z,100.15
2023-04-17T08:53:55.034Z,98.66
2023-04-17T08:54:54.956Z,95.71
2023-04-17T08:55:54.998Z,94.09
2023-04-17T08:56:55.084Z,94.78
2023-04-17T08:57:54.953Z,97.97
2023-04-17T08:58:54.972Z,102.12
2023-04-17T08:59:54.992Z,106.57
2023-04-17T09:00:54.926Z,111.20
2023-04-17T09:01:55.014Z,113.17
2023-04-17T09:02:55.158Z,116.67
2023-04-17T09:03:55.263Z,117.41
2023-04-17T09:04:55.276Z,121.62
2023-04-17T09:05:54.872Z,129.88
2023-04-17T09:06:54.839Z,132.26
2023-04-17T09:07:54.833Z,129.98
2023-04-17T09:08:54.847Z,135.94
2023-04-17T09:09:54.888Z,141.25
2023-04-17T09:10:54.800Z,153.08
2023-04-17T09:11:54.815Z,157.28
2023-04-17T09:12:54.809Z,156.25
2023-04-17T09:13:54.830Z,160.01
2023-04-17T09:14:54.805Z,161.25
2023-04-17T09:15:54.847Z,171.21
2023-04-17T09:16:54.716Z,180.51
2023-04-17T09:17:54.874Z,190.19
2023-04-17T09:18:54.736Z,186.82
2023-04-17T09:19:54.692Z,185.97
2023-04-17T09:20:54.694Z,186.82
2023-04-17T09:21:54.718Z,188.22
2023-04-17T09:22:54.673Z,194.03
2023-04-17T09:23:54.683Z,214.53
2023-04-17T09:25:54.663Z,233.37
2023-04-17T09:26:54.690Z,235.73
2023-04-17T09:27:54.623Z,233.54
2023-04-17T09:28:54.630Z,247.70
2023-04-17T09:29:54.579Z,264.96
2023-04-17T09:30:54.572Z,263.68
2023-04-17T09:31:54.615Z,273.16
2023-04-17T09:32:54.673Z,272.02
2023-04-17T09:33:54.607Z,261.78
2023-04-17T09:34:54.563Z,248.83
2023-04-17T09:35:54.523Z,241.30
2023-04-17T09:36:54.543Z,246.76
2023-04-17T09:37:54.771Z,277.80
2023-04-17T09:38:54.579Z,297.52
2023-04-17T09:39:54.700Z,328.30
2023-04-17T09:40:54.520Z,360.13
2023-04-17T09:41:54.489Z,374.14
2023-04-17T09:42:54.479Z,409.33
2023-04-17T09:43:54.461Z,439.96
2023-04-17T09:44:54.438Z,469.49
2023-04-17T09:45:54.490Z,471.49
2023-04-17T09:46:54.503Z,458.80
2023-04-17T09:47:54.555Z,445.56
2023-04-17T09:48:54.391Z,462.31
2023-04-17T09:49:54.392Z,471.83
2023-04-17T09:50:54.389Z,501.76
2023-04-17T09:51:54.353Z,498.38
2023-04-17T09:52:54.429Z,492.83
2023-04-17T09:53:54.381Z,485.98
2023-04-17T09:54:54.366Z,500.25
2023-04-17T09:55:54.386Z,513.00
2023-04-17T09:56:54.343Z,545.43
2023-04-17T09:57:54.297Z,614.56
2023-04-17T09:58:54.341Z,602.30
2023-04-17T09:59:54.395Z,622.04
2023-04-17T10:00:54.350Z,626.14
2023-04-17T10:01:54.426Z,615.70
2023-04-17T10:02:54.496Z,594.75
2023-04-17T10:03:54.553Z,574.68
2023-04-17T10:04:54.220Z,588.43
2023-04-17T10:05:54.236Z,595.82
2023-04-17T10:06:54.217Z,579.70
2023-04-17T10:07:54.205Z,593.69
2023-04-17T10:08:54.243Z,613.42
2023-04-17T10:09:54.183Z,627.92
2023-04-17T10:10:54.175Z,706.74
2023-04-17T10:11:54.164Z,722.10
2023-04-17T10:12:54.185Z,803.62
2023-04-17T10:13:54.136Z,878.47
2023-04-17T10:14:54.116Z,886.08
2023-04-17T10:15:54.313Z,846.59
2023-04-17T10:16:54.121Z,779.14
2023-04-17T10:17:54.126Z,771.01
2023-04-17T10:18:54.090Z,771.46
2023-04-17T10:19:54.106Z,772.36
2023-04-17T10:20:54.278Z,771.46
2023-04-17T10:21:54.102Z,795.45
2023-04-17T10:22:54.318Z,852.56
2023-04-17T10:23:54.038Z,931.37
2023-04-17T10:24:54.058Z,1003.77
2023-04-17T10:25:54.001Z,958.90
2023-04-17T10:26:53.999Z,963.77
2023-04-17T10:27:54.040Z,1059.76
2023-04-17T10:28:53.994Z,1094.65
2023-04-17T10:29:53.993Z,1093.75
2023-04-17T10:30:54.505Z,1088.38
2023-04-17T10:31:54.030Z,1091.06
2023-04-17T10:32:53.953Z,1071.72
2023-04-17T10:33:54.013Z,1107.41
2023-04-17T10:34:54.015Z,1166.67
2023-04-17T10:35:53.981Z,1165.64
2023-04-17T10:36:54.007Z,1084.83
2023-04-17T10:37:53.905Z,1061.45
2023-04-17T10:38:53.924Z,1083.94
2023-04-17T10:39:53.923Z,1091.06
2023-04-17T10:40:53.897Z,1204.71
2023-04-17T10:41:53.870Z,1296.30
2023-04-17T10:42:53.848Z,1451.96
2023-04-17T10:43:53.868Z,1555.56
2023-04-17T10:44:53.818Z,1469.61
2023-04-17T10:45:53.899Z,1290.01
2023-04-17T10:46:53.808Z,1247.65
2023-04-17T10:47:53.894Z,1310.34
2023-04-17T10:48:53.907Z,1276.39
2023-04-17T10:49:53.778Z,1216.83
2023-04-17T10:50:53.826Z,1186.44
2023-04-17T10:51:53.736Z,1196.04
2023-04-17T10:52:53.756Z,1152.51
2023-04-17T10:53:53.747Z,1176.99
2023-04-17T10:54:53.749Z,1277.62
2023-04-17T10:55:53.741Z,1291.26
2023-04-17T10:56:53.730Z,1407.41
2023-04-17T10:57:53.683Z,1589.96
2023-04-17T10:58:53.672Z,1644.01
2023-04-17T10:59:53.662Z,1773.33
2023-04-17T11:00:53.718Z,1917.81
2023-04-17T11:01:53.810Z,1988.04
2023-04-17T11:02:53.737Z,1921.96
2023-04-17T11:03:53.629Z,1775.70
2023-04-17T11:04:53.652Z,1670.85
2023-04-17T11:05:53.619Z,1754.62
2023-04-17T11:06:53.592Z,1793.66
2023-04-17T11:07:53.600Z,1677.18
2023-04-17T11:08:54.055Z,1681.42
2023-04-17T11:09:53.584Z,1897.29
2023-04-17T11:10:53.562Z,1961.65
2023-04-17T11:11:53.588Z,1889.20
2023-04-17T11:12:53.552Z,1934.55
2023-04-17T11:13:53.548Z,2176.76
2023-04-17T11:14:53.530Z,2287.19
2023-04-17T11:15:53.520Z,2362.34
2023-04-17T11:16:53.634Z,2331.29
2023-04-17T11:17:53.550Z,2483.66
2023-04-17T11:18:53.487Z,2516.56
2023-04-17T11:19:53.479Z,2526.11
2023-04-17T11:20:53.608Z,2689.58
2023-04-17T11:21:53.767Z,2993.81
2023-04-17T11:22:53.435Z,3601.90
2023-04-17T11:23:53.426Z,4003.01
2023-04-17T11:24:53.512Z,4146.53
2023-04-17T11:25:53.397Z,4127.23
2023-04-17T11:26:53.467Z,3877.55
2023-04-17T11:27:53.373Z,3783.78
2023-04-17T11:28:53.455Z,4021.16
2023-04-17T11:29:53.385Z,4048.71
2023-04-17T11:30:53.433Z,4378.60
2023-04-17T11:31:53.380Z,4212.19
2023-04-17T11:32:53.421Z,4239.04
2023-04-17T11:33:53.328Z,4064.17
2023-04-17T11:34:53.383Z,3923.30
2023-04-17T11:35:53.303Z,3886.05
2023-04-17T11:36:53.295Z,3786.48
2023-04-17T11:37:53.315Z,3525.51
2023-04-17T11:38:55.412Z,3273.85
2023-04-17T11:39:53.260Z,3379.92
2023-04-17T11:40:53.339Z,3546.67
2023-04-17T11:41:53.314Z,3292.08
2023-04-17T11:42:53.251Z,3033.07
2023-04-17T11:43:53.254Z,3038.26
2023-04-17T11:44:53.277Z,2998.87
2023-04-17T11:45:53.260Z,2923.08
2023-04-17T11:46:53.282Z,3140.50
2023-04-17T11:47:53.203Z,3197.11
2023-04-17T11:48:53.177Z,2945.74
2023-04-17T11:49:53.181Z,2788.26
2023-04-17T11:50:53.151Z,2717.06
2023-04-17T11:51:53.245Z,2731.01
2023-04-17T11:52:53.144Z,2745.10
2023-04-17T11:53:53.121Z,2597.66
2023-04-17T11:54:53.115Z,2530.92
2023-04-17T11:55:53.112Z,2575.02
2023-04-17T11:56:53.136Z,2649.40
2023-04-17T11:57:53.093Z,2706.00
2023-04-17T11:58:53.144Z,2881.91
2023-04-17T11:59:53.055Z,2907.10
2023-04-17T12:00:53.054Z,3133.10
2023-04-17T12:01:53.183Z,3107.48
2023-04-17T12:02:53.088Z,3133.10
2023-04-17T12:03:53.099Z,3172.33
2023-04-17T12:04:53.151Z,3206.75
2023-04-17T12:05:53.260Z,3490.81
2023-04-17T12:06:52.998Z,3754.41
2023-04-17T12:07:53.003Z,3926.20
2023-04-17T12:08:52.989Z,3943.66
2023-04-17T12:09:53.079Z,3686.76
2023-04-17T12:10:53.041Z,3775.73
2023-04-17T12:11:52.993Z,4120.84
2023-04-17T12:12:52.949Z,4225.58
2023-04-17T12:13:52.917Z,4006.02
2023-04-17T12:14:52.949Z,3973.11
2023-04-17T12:15:52.923Z,3770.38
2023-04-17T12:16:52.893Z,3684.21
2023-04-17T12:17:52.971Z,3641.34
2023-04-17T12:18:52.988Z,4015.09
2023-04-17T12:19:52.866Z,4006.02
2023-04-17T12:20:52.884Z,3725.49
2023-04-17T12:21:52.840Z,3689.32
2023-04-17T12:22:52.860Z,3438.91
2023-04-17T12:23:52.829Z,3568.07
2023-04-17T12:24:52.816Z,3830.09
2023-04-17T12:25:52.818Z,3877.55
2023-04-17T12:26:52.901Z,3964.23
2023-04-17T12:27:52.862Z,4300.73
2023-04-17T12:28:52.781Z,4262.82
2023-04-17T12:29:52.796Z,4120.84
2023-04-17T12:30:52.764Z,3976.08
2023-04-17T12:31:52.767Z,3725.49
2023-04-17T12:32:52.793Z,3671.50
2023-04-17T12:33:52.738Z,3477.12
2023-04-17T12:34:52.713Z,3472.58
2023-04-17T12:35:52.913Z,3497.70
2023-04-17T12:36:52.702Z,3261.80
2023-04-17T12:37:52.667Z,2577.52
2023-04-17T12:38:52.668Z,2174.98
2023-04-17T12:39:52.676Z,2007.55
2023-04-17T12:40:52.661Z,1881.19
2023-04-17T12:41:52.687Z,1676.12
2023-04-17T12:42:52.647Z,1547.41
2023-04-17T12:43:52.645Z,1504.53
2023-04-17T12:44:52.612Z,1430.11